Time;durP1;ratioP1;P1;durP2;ratioP2;P2;SDS_P1;SDS_P2;PMS_P1;PMS_P2;Temp;Humidity;BMP_temperature;BMP_pressure;BME280_temperature;BME280_humidity;BME280_pressure;Samples;Min_cycle;Max_cycle;Signal;HPM_P1;HPM_P2
2022/10/27 00:00:32;;;;;;;9.70;5.70;;;10.50;99.90;;;;;;5054117;28;20214;-66
2022/10/27 00:02:58;;;;;;;8.13;5.57;;;10.40;99.90;;;;;;5055280;28;20171;-67
2022/10/27 00:05:24;;;;;;;9.03;5.70;;;10.40;99.90;;;;;;5055108;28;20667;-67
2022/10/27 00:07:50;;;;;;;8.60;5.87;;;10.30;99.90;;;;;;5053944;28;20182;-67
2022/10/27 00:10:17;;;;;;;7.97;5.30;;;10.30;99.90;;;;;;5053944;28;20179;-67
2022/10/27 00:12:43;;;;;;;9.23;5.27;;;10.30;99.90;;;;;;5055077;28;20269;-66
2022/10/27 00:15:09;;;;;;;8.70;5.10;;;10.20;99.90;;;;;;5055017;28;20198;-67
2022/10/27 00:17:35;;;;;;;8.40;5.40;;;10.20;99.90;;;;;;5055233;28;20281;-67
2022/10/27 00:20:01;;;;;;;6.03;4.73;;;10.20;99.90;;;;;;5055237;28;20257;-66
2022/10/27 00:22:27;;;;;;;8.23;4.93;;;10.20;99.90;;;;;;5054020;28;20186;-67
2022/10/27 00:24:52;;;;;;;7.83;5.20;;;10.20;99.90;;;;;;5055436;28;20197;-67
2022/10/27 00:27:18;;;;;;;7.77;5.03;;;10.10;99.90;;;;;;5054841;28;20202;-67
2022/10/27 00:29:44;;;;;;;6.63;5.10;;;10.10;99.90;;;;;;5055125;28;20262;-67
2022/10/27 00:32:10;;;;;;;7.03;4.97;;;10.10;99.90;;;;;;5055179;28;20159;-66
2022/10/27 00:34:35;;;;;;;9.97;5.90;;;10.10;99.90;;;;;;5054851;28;20212;-66
2022/10/27 00:37:01;;;;;;;6.93;5.20;;;10.20;99.90;;;;;;5053453;28;20190;-66
2022/10/27 00:39:27;;;;;;;11.27;5.00;;;10.10;99.90;;;;;;5054680;28;20757;-66
2022/10/27 00:41:53;;;;;;;9.90;5.23;;;10.10;99.90;;;;;;5054546;28;20185;-66
2022/10/27 00:44:44;;;;;;;8.87;5.83;;;10.00;99.90;;;;;;5053241;28;20630;-66
2022/10/27 00:47:15;;;;;;;7.53;5.50;;;10.00;99.90;;;;;;5054511;28;20181;-66
2022/10/27 00:49:57;;;;;;;8.00;5.00;;;10.00;99.90;;;;;;5054951;28;20162;-66
2022/10/27 00:52:31;;;;;;;7.53;5.67;;;10.00;99.90;;;;;;5054456;28;20596;-66
2022/10/27 00:55:06;;;;;;;7.03;5.27;;;9.90;99.90;;;;;;5054411;28;20191;-66
2022/10/27 00:57:34;;;;;;;7.07;4.93;;;9.90;99.90;;;;;;5053697;28;20654;-66
2022/10/27 01:00:01;;;;;;;6.70;4.93;;;9.80;99.90;;;;;;5054303;28;20186;-66
2022/10/27 01:02:27;;;;;;;5.93;5.10;;;9.80;99.90;;;;;;5054688;28;20163;-66
2022/10/27 01:04:58;;;;;;;8.67;5.20;;;9.80;99.90;;;;;;5052849;28;20567;-66
2022/10/27 01:07:24;;;;;;;6.97;5.10;;;9.70;99.90;;;;;;5054714;28;20249;-66
2022/10/27 01:09:50;;;;;;;8.40;5.77;;;9.70;99.90;;;;;;5052819;28;20567;-66
2022/10/27 01:12:16;;;;;;;6.97;4.97;;;9.70;99.90;;;;;;5052705;28;20181;-66
2022/10/27 01:14:42;;;;;;;5.60;4.63;;;9.70;99.90;;;;;;5053944;28;20190;-66
2022/10/27 01:17:29;;;;;;;5.73;4.70;;;9.70;99.90;;;;;;5052747;28;20550;-64
2022/10/27 01:19:58;;;;;;;10.43;5.73;;;9.80;99.90;;;;;;5054062;28;20147;-66
2022/10/27 01:22:35;;;;;;;9.17;4.83;;;9.80;99.90;;;;;;5054128;28;20170;-66
2022/10/27 01:25:04;;;;;;;8.27;5.50;;;9.80;99.90;;;;;;5053900;28;20296;-66
2022/10/27 01:27:58;;;;;;;8.93;5.27;;;9.80;99.90;;;;;;5053652;28;20224;-66
2022/10/27 01:30:29;;;;;;;10.20;5.83;;;9.80;99.90;;;;;;5052526;28;20180;-62
2022/10/27 01:33:05;;;;;;;6.90;4.97;;;9.70;99.90;;;;;;5053622;28;20242;-62
2022/10/27 01:35:51;;;;;;;7.03;5.00;;;9.70;99.90;;;;;;5053517;28;20221;-62
2022/10/27 01:38:30;;;;;;;6.43;5.33;;;9.70;99.90;;;;;;5053909;28;20523;-63
2022/10/27 01:41:15;;;;;;;9.17;5.50;;;9.70;99.90;;;;;;5053670;28;20200;-62
2022/10/27 01:43:43;;;;;;;8.83;5.27;;;9.70;99.90;;;;;;5053766;28;20620;-62
2022/10/27 01:46:10;;;;;;;7.33;4.97;;;9.70;99.90;;;;;;5053321;28;20214;-62
2022/10/27 01:48:36;;;;;;;8.77;5.20;;;9.70;99.90;;;;;;5053330;28;20174;-62
2022/10/27 01:51:03;;;;;;;11.20;5.50;;;9.60;99.90;;;;;;5053287;28;20591;-62
2022/10/27 01:53:31;;;;;;;7.63;5.10;;;9.60;99.90;;;;;;5051994;28;20265;-62
2022/10/27 01:56:30;;;;;;;7.93;5.47;;;9.50;99.90;;;;;;5053152;28;20293;-62
2022/10/27 01:59:18;;;;;;;6.93;5.03;;;9.50;99.90;;;;;;5053180;28;20651;-62
2022/10/27 02:01:59;;;;;;;7.10;5.73;;;9.50;99.90;;;;;;5051968;28;20192;-62
2022/10/27 02:04:39;;;;;;;9.53;5.27;;;9.50;99.90;;;;;;5053351;28;20198;-62
2022/10/27 02:07:16;;;;;;;8.60;5.97;;;9.50;99.90;;;;;;5053535;28;20522;-62
2022/10/27 02:09:53;;;;;;;6.57;5.50;;;9.50;99.90;;;;;;5052695;28;20202;-62
2022/10/27 02:12:27;;;;;;;7.23;5.67;;;9.50;99.90;;;;;;5053128;28;20260;-63
2022/10/27 02:14:56;;;;;;;8.63;5.60;;;9.50;99.90;;;;;;5053054;28;20194;-62
2022/10/27 02:17:23;;;;;;;6.50;5.43;;;9.50;99.90;;;;;;5053021;28;20175;-62
2022/10/27 02:19:52;;;;;;;10.27;6.43;;;9.50;99.90;;;;;;5053056;28;20176;-62
2022/10/27 02:22:20;;;;;;;8.40;6.17;;;9.50;99.90;;;;;;5052976;28;20228;-62
2022/10/27 02:24:46;;;;;;;8.57;5.80;;;9.50;99.90;;;;;;5052851;28;20198;-62
2022/10/27 02:27:35;;;;;;;8.43;5.90;;;9.50;99.90;;;;;;5052863;28;20231;-62
2022/10/27 02:30:02;;;;;;;9.83;5.77;;;9.50;99.90;;;;;;5052969;28;20166;-62
2022/10/27 02:32:28;;;;;;;9.97;6.17;;;9.50;99.90;;;;;;5053014;28;20264;-62
2022/10/27 02:34:56;;;;;;;6.83;5.70;;;9.40;99.90;;;;;;5052902;28;20205;-62
2022/10/27 02:37:37;;;;;;;8.80;5.67;;;9.40;99.90;;;;;;5051778;28;20202;-62
2022/10/27 02:40:03;;;;;;;12.40;5.53;;;9.40;99.90;;;;;;5053070;28;20619;-62
2022/10/27 02:42:28;;;;;;;7.33;5.27;;;9.30;99.90;;;;;;5052853;28;20228;-62
2022/10/27 02:44:54;;;;;;;10.03;5.47;;;9.30;99.90;;;;;;5052821;28;20225;-62
2022/10/27 02:47:20;;;;;;;8.20;5.80;;;9.40;99.90;;;;;;5053122;28;20175;-63
2022/10/27 02:49:46;;;;;;;9.17;5.73;;;9.40;99.90;;;;;;5052726;28;20662;-62
2022/10/27 02:52:12;;;;;;;11.47;5.73;;;9.40;99.90;;;;;;5052821;28;20244;-62
2022/10/27 02:54:39;;;;;;;11.50;5.93;;;9.30;99.90;;;;;;5052645;28;20198;-62
2022/10/27 02:57:04;;;;;;;8.87;5.70;;;9.20;99.90;;;;;;5052556;28;20174;-62
2022/10/27 02:59:30;;;;;;;8.00;5.70;;;9.20;99.90;;;;;;5052996;28;20554;-62
2022/10/27 03:01:56;;;;;;;7.57;5.60;;;9.20;99.90;;;;;;5051416;28;20189;-62
2022/10/27 03:04:21;;;;;;;9.43;5.20;;;9.20;99.90;;;;;;5052834;28;20198;-62
2022/10/27 03:06:47;;;;;;;6.23;5.57;;;9.10;99.90;;;;;;5052802;28;20336;-62
2022/10/27 03:09:13;;;;;;;8.73;5.83;;;9.10;99.90;;;;;;5051398;28;20185;-61
2022/10/27 03:11:38;;;;;;;6.73;5.50;;;9.00;99.90;;;;;;5052771;28;20268;-63
2022/10/27 03:14:04;;;;;;;7.33;5.10;;;9.00;99.90;;;;;;5052600;28;21798;-62
2022/10/27 03:16:30;;;;;;;8.57;6.20;;;9.00;99.90;;;;;;5052463;28;20702;-62
2022/10/27 03:18:55;;;;;;;7.70;5.77;;;9.00;99.90;;;;;;5052585;28;20190;-62
2022/10/27 03:21:21;;;;;;;7.70;5.60;;;9.00;99.90;;;;;;5054535;28;20647;-62
2022/10/27 03:23:47;;;;;;;6.53;5.30;;;9.00;99.90;;;;;;5056335;28;20225;-63
2022/10/27 03:26:13;;;;;;;7.00;5.57;;;9.10;99.90;;;;;;5056255;28;20604;-62
2022/10/27 03:28:39;;;;;;;8.47;5.30;;;9.10;99.90;;;;;;5056045;28;20200;-62
2022/10/27 03:31:05;;;;;;;7.17;5.47;;;9.10;99.90;;;;;;5056003;28;20258;-62
2022/10/27 03:33:31;;;;;;;13.70;5.97;;;9.10;99.90;;;;;;5056160;28;20705;-62
2022/10/27 03:35:58;;;;;;;10.10;5.60;;;9.10;99.90;;;;;;5055783;28;20249;-62
2022/10/27 03:38:24;;;;;;;7.37;5.43;;;9.10;99.90;;;;;;5055803;28;20202;-62
2022/10/27 03:40:50;;;;;;;10.17;6.00;;;9.10;99.90;;;;;;5055721;28;20653;-61
2022/10/27 03:43:16;;;;;;;9.67;5.37;;;9.10;99.90;;;;;;5055863;28;20209;-63
2022/10/27 03:45:42;;;;;;;7.57;5.50;;;9.10;99.90;;;;;;5055638;28;20683;-64
2022/10/27 03:48:10;;;;;;;9.03;4.97;;;9.10;99.90;;;;;;5055807;28;20183;-64
2022/10/27 03:50:37;;;;;;;7.63;5.40;;;9.10;99.90;;;;;;5055831;28;20163;-64
2022/10/27 03:53:04;;;;;;;7.53;5.03;;;9.10;99.90;;;;;;5055888;28;20170;-63
2022/10/27 03:55:31;;;;;;;7.33;5.23;;;9.10;99.90;;;;;;5055833;28;20713;-63
2022/10/27 03:57:57;;;;;;;8.40;5.77;;;9.10;99.90;;;;;;5055577;28;20647;-63
2022/10/27 04:00:23;;;;;;;9.77;5.70;;;9.20;99.90;;;;;;5054420;28;20190;-63
2022/10/27 04:02:53;;;;;;;11.30;5.93;;;9.10;99.90;;;;;;5054191;28;20183;-63
2022/10/27 04:05:19;;;;;;;8.67;6.00;;;9.10;99.90;;;;;;5054480;28;20216;-63
2022/10/27 04:07:45;;;;;;;6.70;5.53;;;9.10;99.90;;;;;;5055932;28;20182;-62
2022/10/27 04:10:11;;;;;;;8.13;5.73;;;9.10;99.90;;;;;;5055249;28;20228;-62
2022/10/27 04:12:37;;;;;;;7.83;5.67;;;9.00;99.90;;;;;;5055130;28;20241;-62
2022/10/27 04:15:03;;;;;;;9.97;5.73;;;8.90;99.90;;;;;;5053887;28;20225;-62
2022/10/27 04:17:29;;;;;;;8.20;5.10;;;8.90;99.90;;;;;;5055111;28;20186;-62
2022/10/27 04:19:55;;;;;;;8.13;5.00;;;8.90;99.90;;;;;;5055062;28;20232;-62
2022/10/27 04:22:20;;;;;;;7.43;5.67;;;8.80;99.90;;;;;;5053764;28;20186;-62
2022/10/27 04:24:46;;;;;;;8.43;6.00;;;8.80;99.90;;;;;;5054880;28;20201;-62
2022/10/27 04:27:12;;;;;;;7.40;5.50;;;8.80;99.90;;;;;;5054971;28;20638;-62
2022/10/27 04:29:38;;;;;;;10.37;5.70;;;8.70;99.90;;;;;;5054834;28;20183;-62
2022/10/27 04:32:03;;;;;;;6.63;5.67;;;8.70;99.90;;;;;;5054641;28;20257;-62
2022/10/27 04:34:29;;;;;;;9.47;5.87;;;8.80;99.90;;;;;;5054651;28;20650;-62
2022/10/27 04:36:55;;;;;;;7.13;5.33;;;8.80;99.90;;;;;;5054768;28;20169;-62
2022/10/27 04:39:21;;;;;;;7.40;5.70;;;8.70;99.90;;;;;;5054734;28;20175;-62
2022/10/27 04:41:47;;;;;;;8.70;5.77;;;8.70;99.90;;;;;;5054703;28;20171;-62
2022/10/27 04:44:12;;;;;;;9.93;5.87;;;8.70;99.90;;;;;;5053531;28;20576;-66
2022/10/27 04:46:38;;;;;;;5.67;5.17;;;8.70;99.90;;;;;;5054569;28;20240;-66
2022/10/27 04:49:04;;;;;;;11.17;5.70;;;8.70;99.90;;;;;;5054468;28;20179;-66
2022/10/27 04:51:30;;;;;;;12.40;5.90;;;8.70;99.90;;;;;;5053314;28;20205;-66
2022/10/27 04:53:55;;;;;;;10.30;6.10;;;8.70;99.90;;;;;;5054715;28;20682;-66
2022/10/27 04:56:21;;;;;;;7.87;5.87;;;8.70;99.90;;;;;;5054680;28;20186;-66
2022/10/27 04:58:47;;;;;;;8.27;5.60;;;8.60;99.90;;;;;;5054421;28;20245;-66
2022/10/27 05:01:14;;;;;;;11.20;5.63;;;8.60;99.90;;;;;;5054339;28;20190;-66
2022/10/27 05:03:40;;;;;;;6.53;5.77;;;8.60;99.90;;;;;;5054256;28;20190;-66
2022/10/27 05:06:06;;;;;;;8.53;5.83;;;8.60;99.90;;;;;;5054097;28;20203;-66
2022/10/27 05:08:32;;;;;;;10.47;5.83;;;8.60;99.90;;;;;;5052875;28;20181;-66
2022/10/27 05:10:58;;;;;;;7.57;5.70;;;8.60;99.90;;;;;;5053993;28;20166;-65
2022/10/27 05:13:24;;;;;;;8.57;6.00;;;8.60;99.90;;;;;;5054092;28;20178;-66
2022/10/27 05:15:49;;;;;;;9.80;5.83;;;8.60;99.90;;;;;;5054032;28;20666;-66
2022/10/27 05:18:15;;;;;;;9.20;5.97;;;8.60;99.90;;;;;;5053992;28;20258;-66
2022/10/27 05:20:41;;;;;;;8.20;5.53;;;8.60;99.90;;;;;;5054129;28;20209;-66
2022/10/27 05:23:07;;;;;;;12.60;6.53;;;8.60;99.90;;;;;;5053362;28;20175;-66
2022/10/27 05:25:33;;;;;;;9.47;5.87;;;8.60;99.90;;;;;;5054359;28;20206;-66
2022/10/27 05:28:03;;;;;;;6.93;5.57;;;8.60;99.90;;;;;;5054064;28;20216;-66
2022/10/27 05:30:29;;;;;;;8.93;5.53;;;8.50;99.90;;;;;;5054148;28;20708;-66
2022/10/27 05:32:55;;;;;;;7.13;5.47;;;8.50;99.90;;;;;;5052560;28;20178;-66
2022/10/27 05:35:20;;;;;;;8.00;5.90;;;8.50;99.90;;;;;;5053610;28;20210;-66
2022/10/27 05:37:46;;;;;;;8.60;5.93;;;8.60;99.90;;;;;;5053900;28;20167;-66
2022/10/27 05:40:12;;;;;;;6.20;5.60;;;8.60;99.90;;;;;;5053965;28;20665;-66
2022/10/27 05:42:38;;;;;;;10.40;6.00;;;8.60;99.90;;;;;;5053440;28;20655;-66
2022/10/27 05:45:04;;;;;;;7.17;5.67;;;8.50;99.90;;;;;;5053444;28;20194;-66
2022/10/27 05:47:30;;;;;;;8.70;5.77;;;8.50;99.90;;;;;;5053657;28;20269;-65
2022/10/27 05:49:56;;;;;;;9.60;5.97;;;8.50;99.90;;;;;;5053949;28;20605;-66
2022/10/27 05:52:21;;;;;;;9.60;6.47;;;8.50;99.90;;;;;;5053394;28;20171;-66
2022/10/27 05:54:47;;;;;;;9.23;5.80;;;8.50;99.90;;;;;;5053531;28;20183;-66
2022/10/27 05:57:13;;;;;;;9.43;5.97;;;8.50;99.90;;;;;;5053013;28;20175;-66
2022/10/27 05:59:38;;;;;;;7.07;5.87;;;8.50;99.90;;;;;;5053579;28;20177;-66
2022/10/27 06:02:04;;;;;;;5.87;5.27;;;8.50;99.90;;;;;;5053292;28;20209;-66
2022/10/27 06:04:30;;;;;;;11.80;6.57;;;8.50;99.90;;;;;;5051911;28;20198;-66
2022/10/27 06:06:55;;;;;;;8.43;6.30;;;8.50;99.90;;;;;;5053172;28;20194;-66
2022/10/27 06:09:21;;;;;;;9.53;7.17;;;8.50;99.90;;;;;;5053308;28;20179;-66
2022/10/27 06:11:47;;;;;;;9.13;6.23;;;8.50;99.90;;;;;;5053523;28;20169;-66
2022/10/27 06:14:13;;;;;;;10.60;6.30;;;8.50;99.90;;;;;;5053556;28;20265;-66
2022/10/27 06:16:38;;;;;;;7.93;6.03;;;8.50;99.90;;;;;;5053226;28;20234;-66
2022/10/27 06:19:04;;;;;;;11.30;6.83;;;8.50;99.90;;;;;;5051886;28;20183;-66
2022/10/27 06:21:30;;;;;;;12.57;6.77;;;8.50;99.90;;;;;;5053047;28;20198;-66
2022/10/27 06:23:55;;;;;;;9.23;5.70;;;8.50;99.90;;;;;;5053084;28;20186;-66
2022/10/27 06:26:21;;;;;;;8.47;5.87;;;8.50;99.90;;;;;;5051536;28;20213;-66
2022/10/27 06:28:47;;;;;;;8.23;5.93;;;8.50;99.90;;;;;;5053205;28;20170;-66
2022/10/27 06:31:12;;;;;;;8.57;6.47;;;8.60;99.90;;;;;;5053027;28;20174;-66
2022/10/27 06:33:38;;;;;;;8.67;6.10;;;8.60;99.90;;;;;;5053527;28;20170;-66
2022/10/27 06:36:04;;;;;;;8.37;6.17;;;8.60;99.90;;;;;;5052834;28;20195;-66
2022/10/27 06:38:30;;;;;;;11.30;6.53;;;8.60;99.90;;;;;;5053397;28;20220;-66
2022/10/27 06:40:55;;;;;;;10.20;7.47;;;8.70;99.90;;;;;;5051770;28;20183;-66
2022/10/27 06:43:21;;;;;;;12.27;7.47;;;8.80;99.90;;;;;;5052781;28;20655;-66
2022/10/27 06:45:48;;;;;;;13.07;7.20;;;8.80;99.90;;;;;;5052751;28;20282;-66
2022/10/27 06:48:14;;;;;;;7.90;6.60;;;8.80;99.90;;;;;;5053004;28;20634;-65
2022/10/27 06:50:40;;;;;;;8.97;6.50;;;8.90;99.90;;;;;;5053034;28;20175;-66
2022/10/27 06:53:05;;;;;;;10.97;6.70;;;8.90;99.90;;;;;;5051545;28;20568;-66
2022/10/27 06:55:32;;;;;;;8.40;6.57;;;8.90;99.90;;;;;;5054331;28;20209;-66
2022/10/27 06:57:57;;;;;;;9.67;6.23;;;9.00;99.90;;;;;;5055099;28;20655;-66
2022/10/27 07:00:24;;;;;;;11.83;6.90;;;9.00;99.90;;;;;;5057020;28;20257;-66
2022/10/27 07:02:50;;;;;;;10.13;6.57;;;9.00;99.90;;;;;;5056934;28;20194;-66
2022/10/27 07:05:16;;;;;;;8.17;5.90;;;9.00;99.90;;;;;;5056376;28;20206;-66
2022/10/27 07:07:49;;;;;;;8.97;6.00;;;9.00;99.90;;;;;;5055210;28;20179;-66
2022/10/27 07:10:16;;;;;;;13.47;6.50;;;9.10;99.90;;;;;;5056751;28;20159;-66
2022/10/27 07:12:52;;;;;;;8.83;6.23;;;9.10;99.90;;;;;;5056308;28;20276;-66
2022/10/27 07:15:18;;;;;;;9.70;5.53;;;9.10;99.90;;;;;;5055025;28;20198;-66
2022/10/27 07:17:43;;;;;;;10.67;5.63;;;9.20;99.90;;;;;;5056222;28;20182;-66
2022/10/27 07:20:09;;;;;;;7.43;5.70;;;9.20;99.90;;;;;;5056528;28;20182;-66
2022/10/27 07:22:35;;;;;;;7.37;5.60;;;9.30;99.90;;;;;;5056258;28;20175;-66
2022/10/27 07:25:01;;;;;;;11.23;5.67;;;9.40;99.90;;;;;;5054762;28;20723;-66
2022/10/27 07:27:26;;;;;;;7.23;5.13;;;9.40;99.90;;;;;;5054823;28;20175;-66
2022/10/27 07:29:52;;;;;;;7.03;5.70;;;9.50;99.90;;;;;;5054808;28;20201;-66
2022/10/27 07:32:18;;;;;;;8.87;5.67;;;9.50;99.90;;;;;;5056093;28;20169;-66
2022/10/27 07:34:44;;;;;;;6.13;5.20;;;9.50;99.90;;;;;;5054896;28;20191;-66
2022/10/27 07:37:09;;;;;;;9.43;5.20;;;9.60;99.90;;;;;;5056421;28;20175;-66
2022/10/27 07:39:35;;;;;;;10.50;5.90;;;9.60;99.90;;;;;;5055917;28;20201;-66
2022/10/27 07:42:01;;;;;;;7.37;5.57;;;9.60;99.90;;;;;;5056041;28;20173;-66
2022/10/27 07:44:26;;;;;;;7.63;5.83;;;9.70;99.90;;;;;;5056202;28;20671;-66
2022/10/27 07:46:52;;;;;;;7.80;6.10;;;9.80;99.90;;;;;;5055859;28;20194;-66
2022/10/27 07:49:18;;;;;;;7.60;5.30;;;9.90;99.90;;;;;;5055823;28;20265;-66
2022/10/27 07:51:44;;;;;;;9.23;5.80;;;10.00;99.90;;;;;;5055707;28;20171;-66
2022/10/27 07:54:09;;;;;;;7.80;5.90;;;10.10;99.90;;;;;;5056275;28;20233;-66
2022/10/27 07:56:36;;;;;;;9.33;6.90;;;10.20;99.90;;;;;;5054318;28;20598;-66
2022/10/27 07:59:02;;;;;;;7.77;5.60;;;10.30;99.90;;;;;;5055433;28;20191;-66
2022/10/27 08:01:28;;;;;;;6.73;5.50;;;10.40;99.90;;;;;;5055655;28;20190;-66
2022/10/27 08:03:54;;;;;;;7.20;5.70;;;10.40;99.90;;;;;;5054469;28;20182;-66
2022/10/27 08:06:19;;;;;;;6.23;5.33;;;10.50;99.90;;;;;;5055222;28;20194;-66
2022/10/27 08:08:45;;;;;;;6.27;5.67;;;10.60;99.90;;;;;;5055291;28;20213;-66
2022/10/27 08:11:11;;;;;;;7.70;5.77;;;10.70;99.90;;;;;;5055200;28;20178;-65
2022/10/27 08:13:37;;;;;;;6.43;5.73;;;10.90;99.90;;;;;;5054137;28;20561;-66
2022/10/27 08:16:02;;;;;;;7.00;5.30;;;11.10;99.90;;;;;;5054066;28;20252;-66
2022/10/27 08:18:28;;;;;;;6.63;5.30;;;11.30;99.90;;;;;;5054231;28;20186;-63
2022/10/27 08:20:54;;;;;;;6.50;4.97;;;11.50;99.90;;;;;;5055477;28;20178;-63
2022/10/27 08:23:23;;;;;;;7.03;5.60;;;11.70;99.90;;;;;;5055103;28;20185;-63
2022/10/27 08:25:49;;;;;;;6.87;5.00;;;12.00;99.90;;;;;;5055370;28;20478;-64
2022/10/27 08:28:14;;;;;;;8.38;6.07;;;12.20;99.90;;;;;;5055096;28;20197;-64
2022/10/27 08:30:41;;;;;;;7.40;5.40;;;12.40;99.90;;;;;;5053787;28;20528;-64
2022/10/27 08:33:08;;;;;;;9.68;5.95;;;12.70;99.90;;;;;;5054983;28;20171;-64
2022/10/27 08:35:35;;;;;;;8.30;6.07;;;12.90;99.90;;;;;;5054894;28;20187;-64
2022/10/27 08:38:12;;;;;;;12.63;6.95;;;13.20;99.90;;;;;;5053646;28;20206;-64
2022/10/27 08:40:59;;;;;;;9.70;6.18;;;13.40;99.90;;;;;;5055108;28;20158;-63
2022/10/27 08:43:44;;;;;;;13.75;5.70;;;13.70;99.90;;;;;;5054681;28;20178;-63
2022/10/27 08:46:48;;;;;;;9.70;5.40;;;14.00;99.90;;;;;;5054538;28;20226;-63
2022/10/27 08:49:26;;;;;;;9.35;5.40;;;14.30;99.90;;;;;;5053817;28;20190;-68
2022/10/27 08:51:58;;;;;;;6.88;4.55;;;14.50;99.90;;;;;;5054946;28;20154;-68
2022/10/27 08:54:26;;;;;;;10.50;4.68;;;14.70;99.90;;;;;;5054924;28;20190;-69
2022/10/27 08:56:56;;;;;;;5.43;3.95;;;14.90;99.90;;;;;;5054668;28;20178;-67
2022/10/27 08:59:24;;;;;;;8.65;4.40;;;15.10;99.90;;;;;;5054795;28;20182;-68
2022/10/27 09:02:25;;;;;;;5.57;3.80;;;15.30;99.90;;;;;;5055030;28;20181;-68
2022/10/27 09:05:08;;;;;;;4.43;3.40;;;15.60;99.90;;;;;;5036992;28;20205;-69
2022/10/27 09:07:50;;;;;;;5.25;3.13;;;16.00;99.90;;;;;;5055166;28;20170;-69
2022/10/27 09:10:41;;;;;;;7.40;3.33;;;16.20;99.90;;;;;;5054530;28;20158;-68
2022/10/27 09:13:30;;;;;;;4.35;3.00;;;16.40;99.90;;;;;;5043818;28;20697;-68
2022/10/27 09:16:01;;;;;;;4.00;2.83;;;16.50;99.90;;;;;;5054135;28;20211;-67
2022/10/27 09:18:50;;;;;;;4.18;3.10;;;16.60;99.90;;;;;;5052620;28;20232;-68
2022/10/27 09:21:21;;;;;;;3.83;3.03;;;16.60;99.90;;;;;;5054378;28;20166;-67
2022/10/27 09:24:03;;;;;;;4.40;3.00;;;16.70;99.90;;;;;;5052751;28;20182;-67
2022/10/27 09:26:31;;;;;;;4.70;3.08;;;16.80;99.90;;;;;;5053937;28;20194;-67
2022/10/27 09:29:03;;;;;;;4.60;2.90;;;16.80;99.90;;;;;;5053963;28;20169;-68
2022/10/27 09:31:42;;;;;;;8.35;2.85;;;17.00;99.90;;;;;;5054130;28;20513;-67
2022/10/27 09:34:19;;;;;;;4.78;2.58;;;17.10;99.90;;;;;;5052623;28;20194;-67
2022/10/27 09:36:45;;;;;;;3.80;2.90;;;17.10;99.90;;;;;;5053758;28;20273;-67
2022/10/27 09:39:11;;;;;;;7.85;2.90;;;17.20;99.90;;;;;;5054028;28;20258;-67
2022/10/27 09:41:37;;;;;;;4.20;2.78;;;17.30;99.90;;;;;;5053663;28;20241;-67
2022/10/27 09:44:14;;;;;;;5.47;2.90;;;17.40;99.90;;;;;;5052313;28;20590;-67
2022/10/27 09:46:40;;;;;;;3.05;2.50;;;17.40;99.90;;;;;;5052321;28;20194;-67
2022/10/27 09:49:06;;;;;;;3.67;2.33;;;17.50;99.90;;;;;;5053853;28;20642;-67
2022/10/27 09:51:56;;;;;;;2.83;2.40;;;17.50;99.90;;;;;;5053721;28;20265;-67
2022/10/27 09:54:33;;;;;;;5.03;2.72;;;17.70;99.90;;;;;;5054042;28;20201;-67
2022/10/27 09:57:12;;;;;;;3.42;2.58;;;17.70;99.90;;;;;;5053400;28;20169;-67
2022/10/27 09:59:39;;;;;;;2.85;2.40;;;17.80;99.90;;;;;;5053738;28;20245;-67
2022/10/27 10:02:21;;;;;;;6.72;2.63;;;18.00;99.90;;;;;;5053422;28;20167;-67
2022/10/27 10:04:47;;;;;;;2.55;2.35;;;18.10;99.90;;;;;;5053321;28;20194;-67
2022/10/27 10:07:31;;;;;;;4.38;2.40;;;18.20;99.90;;;;;;5051912;28;20198;-67
2022/10/27 10:10:21;;;;;;;5.00;2.80;;;18.30;99.90;;;;;;5053247;28;20171;-67
2022/10/27 10:13:12;;;;;;;11.40;2.72;;;18.40;99.90;;;;;;5051919;28;20171;-67
2022/10/27 10:15:43;;;;;;;3.35;2.25;;;18.50;99.90;;;;;;5053312;28;20305;-68
2022/10/27 10:18:29;;;;;;;8.65;2.33;;;18.60;99.90;;;;;;5053022;28;20210;-68
2022/10/27 10:20:59;;;;;;;2.50;2.30;;;18.60;99.90;;;;;;5053673;28;20270;-67
2022/10/27 10:23:30;;;;;;;2.63;2.20;;;18.70;99.90;;;;;;5053374;28;20155;-68
2022/10/27 10:25:58;;;;;;;5.50;2.28;;;18.80;99.90;;;;;;5053227;28;20190;-68
2022/10/27 10:28:30;;;;;;;4.47;2.20;;;19.00;99.90;;;;;;5052989;28;20187;-68
2022/10/27 10:30:57;;;;;;;3.40;2.13;;;19.10;99.90;;;;;;5054731;28;20185;-68
2022/10/27 10:33:27;;;;;;;3.30;2.65;;;19.20;99.90;;;;;;5057199;28;20175;-68
2022/10/27 10:35:54;;;;;;;7.97;2.25;;;19.30;99.90;;;;;;5057181;28;20190;-68
2022/10/27 10:38:22;;;;;;;4.15;2.15;;;19.50;99.90;;;;;;5055948;28;20178;-68
2022/10/27 10:40:58;;;;;;;4.47;2.40;;;19.60;99.90;;;;;;5057035;28;20171;-68
2022/10/27 10:43:24;;;;;;;3.22;2.10;;;19.70;99.90;;;;;;5056902;28;20501;-68
2022/10/27 10:45:51;;;;;;;4.43;2.10;;;19.80;99.90;;;;;;5055574;28;20225;-68
2022/10/27 10:48:39;;;;;;;5.47;2.40;;;19.90;99.90;;;;;;5056934;28;20202;-68
2022/10/27 10:51:07;;;;;;;3.30;2.10;;;19.90;99.90;;;;;;5057080;28;20638;-68
2022/10/27 10:53:56;;;;;;;6.35;2.55;;;19.90;99.90;;;;;;5055548;28;20269;-68
2022/10/27 10:56:28;;;;;;;2.92;2.22;;;19.90;99.90;;;;;;5058249;28;20163;-68
2022/10/27 10:59:18;;;;;;;4.45;2.30;;;20.00;99.90;;;;;;5056192;28;20194;-68
2022/10/27 11:01:56;;;;;;;3.47;2.25;;;20.10;99.90;;;;;;5057255;28;20163;-68
2022/10/27 11:04:29;;;;;;;5.60;2.58;;;20.30;99.90;;;;;;5056609;28;20323;-68
2022/10/27 11:07:15;;;;;;;11.27;2.38;;;20.30;99.90;;;;;;5056840;28;20659;-68
2022/10/27 11:09:56;;;;;;;3.03;2.20;;;20.20;99.90;;;;;;5056750;28;20190;-68
2022/10/27 11:13:06;;;;;;;5.22;2.50;;;20.20;99.90;;;;;;5056626;28;20165;-68
2022/10/27 11:16:05;;;;;;;4.05;2.47;;;20.10;99.90;;;;;;5053247;28;20213;-68
2022/10/27 11:18:40;;;;;;;4.75;2.38;;;20.20;99.90;;;;;;5055036;28;20268;-67
2022/10/27 11:21:28;;;;;;;6.57;2.60;;;20.30;99.90;;;;;;5056677;28;20158;-68
2022/10/27 11:24:02;;;;;;;4.20;2.65;;;20.40;99.90;;;;;;5056455;28;20178;-67
2022/10/27 11:26:35;;;;;;;3.40;2.65;;;20.60;99.90;;;;;;5056421;28;20272;-67
2022/10/27 11:29:20;;;;;;;6.60;2.55;;;20.80;99.90;;;;;;5055038;28;20345;-67
2022/10/27 11:32:09;;;;;;;7.78;3.17;;;20.90;99.90;;;;;;5056819;28;20619;-68
2022/10/27 11:34:42;;;;;;;8.18;3.22;;;21.00;99.90;;;;;;5056242;28;20288;-68
2022/10/27 11:37:13;;;;;;;8.35;3.13;;;21.00;99.90;;;;;;5056518;28;20170;-65
2022/10/27 11:39:45;;;;;;;10.52;3.53;;;21.10;99.90;;;;;;5056364;28;20504;-65
2022/10/27 11:42:25;;;;;;;10.10;3.17;;;21.10;99.90;;;;;;5055900;28;20540;-65
2022/10/27 11:45:13;;;;;;;7.55;3.38;;;21.20;99.90;;;;;;5056028;28;20272;-64
2022/10/27 11:47:49;;;;;;;6.55;3.08;;;21.30;99.90;;;;;;5055900;28;20658;-64
2022/10/27 11:50:26;;;;;;;10.02;3.65;;;21.40;99.90;;;;;;5055927;28;20182;-66
2022/10/27 11:52:55;;;;;;;7.63;3.40;;;21.40;99.90;;;;;;5055990;28;20252;-65
2022/10/27 11:55:38;;;;;;;6.53;3.10;;;21.50;99.90;;;;;;5055532;28;20201;-65
2022/10/27 11:58:18;;;;;;;8.27;3.15;;;21.60;99.90;;;;;;5055489;28;20186;-65
2022/10/27 12:01:36;;;;;;;6.95;3.05;;;21.80;99.90;;;;;;5055502;28;20154;-65
2022/10/27 12:04:19;;;;;;;6.13;2.78;;;21.90;99.90;;;;;;5055378;28;20174;-65
2022/10/27 12:06:58;;;;;;;4.65;2.60;;;22.00;99.90;;;;;;5055359;28;20202;-65
2022/10/27 12:09:48;;;;;;;8.07;2.92;;;22.10;99.90;;;;;;5055698;28;20163;-65
2022/10/27 12:12:37;;;;;;;7.40;3.00;;;22.20;99.90;;;;;;5055135;28;20626;-65
2022/10/27 12:15:28;;;;;;;9.43;2.50;;;22.30;99.90;;;;;;5055287;28;20197;-65
2022/10/27 12:18:27;;;;;;;6.38;2.40;;;22.50;99.90;;;;;;5055143;28;20193;-65
2022/10/27 12:21:04;;;;;;;6.18;2.53;;;22.50;99.90;;;;;;5055107;28;20208;-65
2022/10/27 12:23:35;;;;;;;8.00;2.58;;;22.50;99.90;;;;;;5055377;28;20240;-64
2022/10/27 12:26:14;;;;;;;7.82;3.33;;;22.50;99.90;;;;;;5054980;28;20200;-64
2022/10/27 12:28:40;;;;;;;5.75;2.55;;;22.40;99.90;;;;;;5054816;28;20219;-64
2022/10/27 12:31:14;;;;;;;5.53;2.42;;;22.40;99.90;;;;;;5053728;28;20663;-64
2022/10/27 12:33:52;;;;;;;7.50;2.50;;;22.50;99.90;;;;;;5055290;28;20159;-64
2022/10/27 12:36:25;;;;;;;6.22;2.30;;;22.40;99.90;;;;;;5055176;28;20514;-64
2022/10/27 12:39:09;;;;;;;7.72;2.33;;;22.30;99.90;;;;;;5054782;28;20182;-64
2022/10/27 12:41:41;;;;;;;6.53;2.45;;;22.10;99.90;;;;;;5054731;28;20285;-64
2022/10/27 12:44:42;;;;;;;5.07;2.22;;;22.10;99.90;;;;;;5054968;28;20529;-64
2022/10/27 12:47:30;;;;;;;8.00;2.38;;;22.00;99.90;;;;;;5042571;28;20226;-64
2022/10/27 12:50:08;;;;;;;6.20;2.10;;;22.00;99.90;;;;;;5052853;28;20192;-64
2022/10/27 12:52:47;;;;;;;6.47;2.53;;;22.10;99.90;;;;;;5053280;28;20167;-64
2022/10/27 12:55:15;;;;;;;2.60;2.00;;;22.10;99.90;;;;;;5054423;28;20243;-64
2022/10/27 12:58:00;;;;;;;9.20;2.45;;;22.10;99.90;;;;;;5054164;28;20567;-65
2022/10/27 13:00:28;;;;;;;4.60;2.05;;;22.10;99.90;;;;;;5054830;28;20620;-65
2022/10/27 13:03:11;;;;;;;6.20;2.30;;;22.10;99.90;;;;;;5054706;28;20228;-65
2022/10/27 13:06:04;;;;;;;4.45;2.25;;;22.10;99.90;;;;;;5054393;28;20259;-65
2022/10/27 13:09:02;;;;;;;7.78;2.42;;;22.20;99.90;;;;;;5054426;28;20253;-68
2022/10/27 13:11:52;;;;;;;4.32;2.20;;;22.20;99.90;;;;;;5054656;28;20167;-68